sensor_id;sensor_type;location;lat;lon;timestamp;pressure;altitude;pressure_sealevel;temperature;humidity
63582;BME280;49727;51.078;17.066;2023-04-19T00:11:28;100694.50;;;10.17;69.15
63582;BME280;49727;51.078;17.066;2023-04-19T00:26:29;100678.41;;;10.01;69.12
63582;BME280;49727;51.078;17.066;2023-04-19T00:41:29;100662.06;;;9.77;69.00
63582;BME280;49727;51.078;17.066;2023-04-19T00:56:29;100649.06;;;9.56;69.13
63582;BME280;49727;51.078;17.066;2023-04-19T01:11:30;100638.19;;;9.31;69.09
63582;BME280;49727;51.078;17.066;2023-04-19T01:26:31;100622.47;;;9.02;68.61
63582;BME280;49727;51.078;17.066;2023-04-19T01:41:31;100614.06;;;8.79;68.55
63582;BME280;49727;51.078;17.066;2023-04-19T01:56:31;100597.38;;;8.59;68.24
63582;BME280;49727;51.078;17.066;2023-04-19T02:11:32;100595.78;;;8.38;67.09
63582;BME280;49727;51.078;17.066;2023-04-19T02:26:32;100588.25;;;8.24;65.53
63582;BME280;49727;51.078;17.066;2023-04-19T02:41:32;100594.28;;;8.26;64.45
63582;BME280;49727;51.078;17.066;2023-04-19T02:56:33;100575.25;;;7.93;63.14
63582;BME280;49727;51.078;17.066;2023-04-19T03:11:33;100551.97;;;7.77;62.62
63582;BME280;49727;51.078;17.066;2023-04-19T03:26:34;100550.13;;;7.77;62.57
63582;BME280;49727;51.078;17.066;2023-04-19T03:41:35;100523.81;;;7.56;60.79
63582;BME280;49727;51.078;17.066;2023-04-19T03:56:35;100537.06;;;7.56;61.20
63582;BME280;49727;51.078;17.066;2023-04-19T04:11:36;100536.81;;;7.50;60.90
63582;BME280;49727;51.078;17.066;2023-04-19T04:26:36;100550.06;;;7.30;60.23
63582;BME280;49727;51.078;17.066;2023-04-19T04:41:38;100556.25;;;6.51;62.85
63582;BME280;49727;51.078;17.066;2023-04-19T04:56:41;100548.03;;;6.13;64.01
63582;BME280;49727;51.078;17.066;2023-04-19T05:11:41;100551.38;;;5.94;65.27
63582;BME280;49727;51.078;17.066;2023-04-19T05:26:42;100549.13;;;6.41;65.69
63582;BME280;49727;51.078;17.066;2023-04-19T05:41:42;100531.50;;;6.71;65.44
63582;BME280;49727;51.078;17.066;2023-04-19T05:56:42;100532.47;;;6.70;64.85
63582;BME280;49727;51.078;17.066;2023-04-19T06:11:44;100524.28;;;7.13;64.48
63582;BME280;49727;51.078;17.066;2023-04-19T06:26:45;100531.66;;;7.19;63.08
63582;BME280;49727;51.078;17.066;2023-04-19T06:41:46;100531.19;;;7.72;63.05
63582;BME280;49727;51.078;17.066;2023-04-19T06:56:48;100533.75;;;8.85;62.40
63582;BME280;49727;51.078;17.066;2023-04-19T07:11:49;100531.09;;;9.39;60.33
63582;BME280;49727;51.078;17.066;2023-04-19T07:26:50;100523.78;;;10.63;58.45
63582;BME280;49727;51.078;17.066;2023-04-19T07:41:50;100517.78;;;12.01;55.32
63582;BME280;49727;51.078;17.066;2023-04-19T07:56:51;100499.88;;;13.65;52.10
63582;BME280;49727;51.078;17.066;2023-04-19T08:11:51;100512.66;;;14.75;49.28
63582;BME280;49727;51.078;17.066;2023-04-19T08:26:52;100496.97;;;14.42;47.64
63582;BME280;49727;51.078;17.066;2023-04-19T08:41:54;100511.25;;;12.51;46.71
63582;BME280;49727;51.078;17.066;2023-04-19T08:56:58;100497.69;;;10.83;49.61
63582;BME280;49727;51.078;17.066;2023-04-19T09:11:59;100501.00;;;10.26;50.57
63582;BME280;49727;51.078;17.066;2023-04-19T09:27:00;100487.59;;;10.01;51.04
63582;BME280;49727;51.078;17.066;2023-04-19T09:42:00;100492.25;;;10.07;51.44
63582;BME280;49727;51.078;17.066;2023-04-19T09:57:01;100484.84;;;9.85;52.05
63582;BME280;49727;51.078;17.066;2023-04-19T10:12:02;100498.00;;;9.34;52.89
63582;BME280;49727;51.078;17.066;2023-04-19T10:27:07;100478.13;;;9.46;53.62
63582;BME280;49727;51.078;17.066;2023-04-19T10:42:10;100464.97;;;10.05;53.50
63582;BME280;49727;51.078;17.066;2023-04-19T10:57:12;100466.47;;;10.42;52.90
63582;BME280;49727;51.078;17.066;2023-04-19T11:12:15;100465.19;;;9.77;53.43
63582;BME280;49727;51.078;17.066;2023-04-19T11:27:15;100458.09;;;9.34;54.11
63582;BME280;49727;51.078;17.066;2023-04-19T11:42:19;100459.59;;;8.92;55.68
63582;BME280;49727;51.078;17.066;2023-04-19T11:57:28;100471.38;;;8.43;57.05
63582;BME280;49727;51.078;17.066;2023-04-19T12:12:31;100460.72;;;8.25;58.66
63582;BME280;49727;51.078;17.066;2023-04-19T12:27:31;100472.63;;;8.21;59.40
63582;BME280;49727;51.078;17.066;2023-04-19T12:42:32;100466.22;;;7.86;60.21
63582;BME280;49727;51.078;17.066;2023-04-19T12:57:32;100472.84;;;7.72;61.43
63582;BME280;49727;51.078;17.066;2023-04-19T13:12:32;100474.84;;;7.51;61.89
63582;BME280;49727;51.078;17.066;2023-04-19T13:27:33;100469.28;;;7.44;61.85
63582;BME280;49727;51.078;17.066;2023-04-19T13:42:33;100464.25;;;7.51;62.67
63582;BME280;49727;51.078;17.066;2023-04-19T13:57:34;100476.13;;;7.84;62.15
63582;BME280;49727;51.078;17.066;2023-04-19T14:12:34;100460.19;;;7.94;61.79
63582;BME280;49727;51.078;17.066;2023-04-19T14:27:35;100457.84;;;8.46;61.56
63582;BME280;49727;51.078;17.066;2023-04-19T14:42:35;100455.34;;;8.63;61.18
63582;BME280;49727;51.078;17.066;2023-04-19T14:57:36;100446.91;;;8.86;60.53
63582;BME280;49727;51.078;17.066;2023-04-19T15:12:36;100452.59;;;8.91;59.63
63582;BME280;49727;51.078;17.066;2023-04-19T15:27:37;100447.78;;;8.68;59.73
63582;BME280;49727;51.078;17.066;2023-04-19T15:42:37;100450.38;;;8.50;60.19
63582;BME280;49727;51.078;17.066;2023-04-19T15:57:37;100454.22;;;8.66;59.13
63582;BME280;49727;51.078;17.066;2023-04-19T16:12:38;100460.91;;;8.70;59.21
63582;BME280;49727;51.078;17.066;2023-04-19T16:27:40;100463.78;;;8.30;58.99
63582;BME280;49727;51.078;17.066;2023-04-19T16:42:44;100462.44;;;7.89;59.94
63582;BME280;49727;51.078;17.066;2023-04-19T16:57:44;100486.97;;;7.43;60.20
63582;BME280;49727;51.078;17.066;2023-04-19T17:12:44;100491.06;;;7.28;60.88
63582;BME280;49727;51.078;17.066;2023-04-19T17:27:45;100486.75;;;7.07;61.12
63582;BME280;49727;51.078;17.066;2023-04-19T17:42:45;100498.34;;;6.87;62.13
63582;BME280;49727;51.078;17.066;2023-04-19T17:57:45;100506.41;;;6.75;62.35
63582;BME280;49727;51.078;17.066;2023-04-19T18:12:46;100520.88;;;6.62;62.02
63582;BME280;49727;51.078;17.066;2023-04-19T18:27:47;100536.19;;;6.58;63.14
63582;BME280;49727;51.078;17.066;2023-04-19T18:42:47;100544.81;;;6.50;62.35
63582;BME280;49727;51.078;17.066;2023-04-19T18:57:47;100536.16;;;6.38;62.98
63582;BME280;49727;51.078;17.066;2023-04-19T19:12:48;100539.75;;;6.37;62.94
63582;BME280;49727;51.078;17.066;2023-04-19T19:27:48;100552.13;;;6.37;63.04
63582;BME280;49727;51.078;17.066;2023-04-19T19:42:52;100556.88;;;6.33;63.54
63582;BME280;49727;51.078;17.066;2023-04-19T19:57:53;100560.00;;;6.17;63.77
63582;BME280;49727;51.078;17.066;2023-04-19T20:12:53;100568.91;;;6.16;64.58
63582;BME280;49727;51.078;17.066;2023-04-19T20:27:56;100581.19;;;6.17;65.00
63582;BME280;49727;51.078;17.066;2023-04-19T20:42:56;100562.06;;;6.14;65.28
63582;BME280;49727;51.078;17.066;2023-04-19T20:57:56;100570.09;;;6.02;65.45
63582;BME280;49727;51.078;17.066;2023-04-19T21:12:57;100564.59;;;5.94;65.87
63582;BME280;49727;51.078;17.066;2023-04-19T21:27:57;100561.84;;;5.74;66.56
63582;BME280;49727;51.078;17.066;2023-04-19T21:42:57;100571.94;;;5.90;66.76
63582;BME280;49727;51.078;17.066;2023-04-19T21:57:58;100559.56;;;5.91;67.17
63582;BME280;49727;51.078;17.066;2023-04-19T22:12:59;100574.59;;;5.90;67.14
63582;BME280;49727;51.078;17.066;2023-04-19T22:28:01;100567.72;;;5.99;67.30
63582;BME280;49727;51.078;17.066;2023-04-19T22:43:01;100544.88;;;5.98;67.31
63582;BME280;49727;51.078;17.066;2023-04-19T22:58:02;100552.81;;;5.98;67.92
63582;BME280;49727;51.078;17.066;2023-04-19T23:13:04;100553.69;;;5.87;68.05
63582;BME280;49727;51.078;17.066;2023-04-19T23:28:05;100549.34;;;5.98;68.01
63582;BME280;49727;51.078;17.066;2023-04-19T23:43:05;100531.28;;;6.03;68.04
63582;BME280;49727;51.078;17.066;2023-04-19T23:58:05;100528.69;;;6.13;68.17
